createdAt,value
2019-01-24T00:01:23.402Z,-5.40
2019-01-24T00:03:25.223Z,-5.30
2019-01-24T00:05:27.047Z,-5.20
2019-01-24T00:07:29.070Z,-5.00
2019-01-24T00:09:30.800Z,-5.30
2019-01-24T00:11:32.494Z,-5.30
2019-01-24T00:13:34.566Z,-5.30
2019-01-24T00:15:36.278Z,-5.30
2019-01-24T00:17:38.005Z,-5.30
2019-01-24T00:19:39.734Z,-5.50
2019-01-24T00:21:41.455Z,-5.40
2019-01-24T00:23:43.206Z,-5.40
2019-01-24T00:25:45.399Z,-5.30
2019-01-24T00:27:47.290Z,-5.10
2019-01-24T00:29:49.254Z,-5.30
2019-01-24T00:31:50.966Z,-5.20
2019-01-24T00:33:52.788Z,-5.10
2019-01-24T00:35:54.675Z,-5.10
2019-01-24T00:37:56.400Z,-5.00
2019-01-24T00:39:58.114Z,-5.00
2019-01-24T00:42:00.011Z,-5.20
2019-01-24T00:44:01.943Z,-5.20
2019-01-24T00:46:03.766Z,-5.20
2019-01-24T00:48:05.602Z,-5.20
2019-01-24T00:50:07.840Z,-5.10
2019-01-24T00:52:09.678Z,-4.90
2019-01-24T00:54:11.526Z,-4.80
2019-01-24T00:56:13.230Z,-5.00
2019-01-24T00:58:15.049Z,-4.90
2019-01-24T01:00:19.516Z,-5.00
2019-01-24T01:02:21.414Z,-4.90
2019-01-24T01:04:29.585Z,-5.00
2019-01-24T01:06:26.851Z,-5.00
2019-01-24T01:08:28.655Z,-5.10
2019-01-24T01:10:30.498Z,-5.10
2019-01-24T01:12:32.571Z,-5.00
2019-01-24T01:14:34.408Z,-4.90
2019-01-24T01:16:36.218Z,-5.00
2019-01-24T01:18:37.979Z,-5.10
2019-01-24T01:20:39.690Z,-5.10
2019-01-24T01:22:41.508Z,-5.10
2019-01-24T01:24:43.350Z,-5.10
2019-01-24T01:26:45.151Z,-5.10
2019-01-24T01:28:47.065Z,-5.10
2019-01-24T01:30:48.822Z,-5.20
2019-01-24T01:32:51.206Z,-5.10
2019-01-24T01:34:53.300Z,-4.90
2019-01-24T01:36:58.273Z,-5.00
2019-01-24T01:38:59.597Z,-4.80
2019-01-24T01:41:01.298Z,-4.90
2019-01-24T01:43:03.245Z,-5.00
2019-01-24T01:45:07.467Z,-4.90
2019-01-24T01:47:09.179Z,-4.90
2019-01-24T01:49:11.071Z,-5.00
2019-01-24T01:51:12.789Z,-5.00
2019-01-24T01:53:14.512Z,-5.00
2019-01-24T01:55:16.458Z,-5.00
2019-01-24T01:57:18.390Z,-5.10
2019-01-24T01:59:20.098Z,-5.20
2019-01-24T02:01:21.833Z,-5.10
2019-01-24T02:03:23.523Z,-5.10
2019-01-24T02:05:25.352Z,-5.10
2019-01-24T02:07:27.069Z,-5.00
2019-01-24T02:09:28.790Z,-4.90
2019-01-24T02:11:30.529Z,-4.90
2019-01-24T02:13:32.262Z,-5.10
2019-01-24T02:15:34.069Z,-5.10
2019-01-24T02:17:35.890Z,-5.10
2019-01-24T02:19:38.071Z,-5.10
2019-01-24T02:21:39.790Z,-5.10
2019-01-24T02:23:41.614Z,-5.10
2019-01-24T02:25:43.435Z,-5.10
2019-01-24T02:27:45.392Z,-5.10
2019-01-24T02:29:47.210Z,-5.20
2019-01-24T02:31:49.027Z,-5.30
2019-01-24T02:33:50.766Z,-5.30
2019-01-24T02:35:52.592Z,-5.20
2019-01-24T02:37:54.430Z,-5.20
2019-01-24T02:39:56.166Z,-5.10
2019-01-24T02:41:57.862Z,-5.20
2019-01-24T02:43:59.587Z,-5.30
2019-01-24T02:46:01.543Z,-5.30
2019-01-24T02:48:03.660Z,-5.30
2019-01-24T02:50:07.855Z,-5.00
2019-01-24T02:52:09.740Z,-5.00
2019-01-24T02:54:11.460Z,-5.20
2019-01-24T02:56:13.172Z,-5.10
2019-01-24T02:58:14.912Z,-5.10
2019-01-24T03:00:18.377Z,-5.00
2019-01-24T03:02:20.195Z,-4.90
2019-01-24T03:04:22.034Z,-4.90
2019-01-24T03:06:23.746Z,-5.00
2019-01-24T03:08:25.483Z,-4.90
2019-01-24T03:10:27.218Z,-4.90
2019-01-24T03:12:28.971Z,-5.00
2019-01-24T03:14:30.679Z,-5.00
2019-01-24T03:16:32.541Z,-5.00
2019-01-24T03:18:34.234Z,-5.00
2019-01-24T03:20:36.062Z,-4.80
2019-01-24T03:22:37.999Z,-4.80
2019-01-24T03:24:39.700Z,-4.90
2019-01-24T03:26:41.430Z,-4.90
2019-01-24T03:28:43.127Z,-5.00
2019-01-24T03:30:44.844Z,-5.00
2019-01-24T03:32:46.641Z,-5.00
2019-01-24T03:34:48.392Z,-5.10
2019-01-24T03:36:50.104Z,-5.20
2019-01-24T03:38:51.813Z,-5.20
2019-01-24T03:40:53.539Z,-5.20
2019-01-24T03:42:55.238Z,-5.20
2019-01-24T03:44:56.978Z,-5.30
2019-01-24T03:46:58.706Z,-5.20
2019-01-24T03:49:00.411Z,-5.10
2019-01-24T03:51:02.350Z,-5.20
2019-01-24T03:53:04.314Z,-5.10
2019-01-24T03:55:06.589Z,-5.10
2019-01-24T03:57:08.538Z,-5.00
2019-01-24T03:59:10.363Z,-4.90
2019-01-24T04:01:12.167Z,-5.00
2019-01-24T04:03:14.401Z,-5.00
2019-01-24T04:05:16.521Z,-4.90
2019-01-24T04:07:18.471Z,-5.00
2019-01-24T04:09:21.141Z,-5.00
2019-01-24T04:11:22.934Z,-5.00
2019-01-24T04:13:24.663Z,-5.10
2019-01-24T04:15:26.526Z,-5.10
2019-01-24T04:17:28.248Z,-5.20
2019-01-24T04:19:29.954Z,-5.30
2019-01-24T04:21:32.252Z,-5.40
2019-01-24T04:23:33.963Z,-5.30
2019-01-24T04:25:35.670Z,-5.30
2019-01-24T04:27:37.532Z,-5.20
2019-01-24T04:29:39.252Z,-5.10
2019-01-24T04:31:40.976Z,-5.00
2019-01-24T04:33:42.722Z,-4.90
2019-01-24T04:35:44.437Z,-4.90
2019-01-24T04:37:46.798Z,-4.80
2019-01-24T04:39:48.546Z,-4.80
2019-01-24T04:41:50.252Z,-4.80
2019-01-24T04:43:52.002Z,-4.70
2019-01-24T04:45:53.711Z,-4.70
2019-01-24T04:47:55.658Z,-4.70
2019-01-24T04:49:57.370Z,-4.70
2019-01-24T04:51:59.114Z,-4.70
2019-01-24T04:54:00.894Z,-4.80
2019-01-24T04:56:03.331Z,-4.80
2019-01-24T04:58:05.298Z,-4.70
2019-01-24T05:00:11.549Z,-4.70
2019-01-24T05:02:13.294Z,-4.60
2019-01-24T05:04:15.095Z,-4.60
2019-01-24T05:06:16.815Z,-4.50
2019-01-24T05:08:18.517Z,-4.50
2019-01-24T05:10:20.430Z,-4.50
2019-01-24T05:12:22.162Z,-4.50
2019-01-24T05:14:23.875Z,-4.50
2019-01-24T05:16:25.719Z,-4.40
2019-01-24T05:18:27.445Z,-4.40
2019-01-24T05:20:29.166Z,-4.30
2019-01-24T05:22:30.906Z,-4.30
2019-01-24T05:24:32.618Z,-4.40
2019-01-24T05:26:34.326Z,-4.40
2019-01-24T05:28:36.082Z,-4.40
2019-01-24T05:30:37.876Z,-4.40
2019-01-24T05:32:39.585Z,-4.30
2019-01-24T05:34:41.329Z,-4.40
2019-01-24T05:36:46.357Z,-4.30
2019-01-24T05:38:48.074Z,-4.30
2019-01-24T05:40:50.169Z,-4.30
2019-01-24T05:42:51.976Z,-4.30
2019-01-24T05:44:53.691Z,-4.20
2019-01-24T05:46:55.435Z,-4.10
2019-01-24T05:48:57.146Z,-4.00
2019-01-24T05:50:58.861Z,-3.90
2019-01-24T05:53:20.300Z,-4.00
2019-01-24T05:55:22.154Z,-4.10
2019-01-24T05:57:23.894Z,-4.10
2019-01-24T05:59:25.711Z,-4.10
2019-01-24T06:01:27.939Z,-4.00
2019-01-24T06:03:29.837Z,-3.80
2019-01-24T06:05:31.802Z,-3.90
2019-01-24T06:07:33.555Z,-4.00
2019-01-24T06:09:35.298Z,-4.00
2019-01-24T06:11:37.343Z,-4.00
2019-01-24T06:13:39.072Z,-4.00
2019-01-24T06:15:40.926Z,-4.10
2019-01-24T06:17:43.010Z,-4.00
2019-01-24T06:19:44.866Z,-4.00
2019-01-24T06:21:46.894Z,-3.90
2019-01-24T06:23:48.802Z,-3.90
2019-01-24T06:25:50.634Z,-4.00
2019-01-24T06:27:52.363Z,-4.00
2019-01-24T06:29:54.141Z,-4.10
2019-01-24T06:31:55.978Z,-4.20
2019-01-24T06:33:57.706Z,-4.10
2019-01-24T06:35:59.464Z,-4.30
2019-01-24T06:38:01.251Z,-4.30
2019-01-24T06:40:04.558Z,-4.30
2019-01-24T06:42:06.525Z,-4.30
2019-01-24T06:44:08.258Z,-4.40
2019-01-24T06:46:09.973Z,-4.30
2019-01-24T06:48:11.711Z,-4.30
2019-01-24T06:50:14.059Z,-4.30
2019-01-24T06:52:15.810Z,-4.30
2019-01-24T06:54:17.535Z,-4.30
2019-01-24T06:56:19.286Z,-4.30
2019-01-24T06:58:21.014Z,-4.30
2019-01-24T07:00:22.952Z,-4.20
2019-01-24T07:02:24.698Z,-4.30
2019-01-24T07:04:26.432Z,-4.30
2019-01-24T07:06:28.266Z,-4.40
2019-01-24T07:08:30.038Z,-4.40
2019-01-24T07:10:31.890Z,-4.30
2019-01-24T07:12:33.610Z,-4.30
2019-01-24T07:14:35.455Z,-4.30
2019-01-24T07:16:37.182Z,-4.20
2019-01-24T07:18:39.042Z,-4.30
2019-01-24T07:20:40.909Z,-4.20
2019-01-24T07:22:42.744Z,-4.10
2019-01-24T07:24:44.740Z,-4.00
2019-01-24T07:26:46.491Z,-4.00
2019-01-24T07:28:48.218Z,-3.90
2019-01-24T07:30:49.946Z,-3.90
2019-01-24T07:32:51.778Z,-4.00
2019-01-24T07:34:53.535Z,-4.10
2019-01-24T07:36:55.263Z,-4.10
2019-01-24T07:38:56.994Z,-4.10
2019-01-24T07:40:58.739Z,-4.00
2019-01-24T07:43:00.459Z,-4.00
2019-01-24T07:45:03.690Z,-3.90
2019-01-24T07:47:05.414Z,-4.00
2019-01-24T07:49:07.189Z,-4.00
2019-01-24T07:51:08.931Z,-3.90
2019-01-24T07:53:10.802Z,-4.10
2019-01-24T07:55:12.839Z,-3.90
2019-01-24T07:57:14.658Z,-3.80
2019-01-24T07:59:16.490Z,-3.80
2019-01-24T08:01:18.311Z,-3.80
2019-01-24T08:03:20.035Z,-3.90
2019-01-24T08:05:22.434Z,-4.00
2019-01-24T08:07:24.142Z,-3.80
2019-01-24T08:09:25.888Z,-3.70
2019-01-24T08:11:27.641Z,-3.60
2019-01-24T08:13:29.479Z,-3.60
2019-01-24T08:15:31.461Z,-3.80
2019-01-24T08:17:33.277Z,-3.80
2019-01-24T08:19:34.999Z,-4.00
2019-01-24T08:21:36.920Z,-3.90
2019-01-24T08:23:38.647Z,-3.70
2019-01-24T08:25:40.481Z,-3.70
2019-01-24T08:27:42.302Z,-3.80
2019-01-24T08:29:44.039Z,-3.70
2019-01-24T08:31:45.735Z,-3.80
2019-01-24T08:33:47.593Z,-3.80
2019-01-24T08:35:49.754Z,-3.80
2019-01-24T08:37:51.776Z,-3.70
2019-01-24T08:39:53.502Z,-3.60
2019-01-24T08:41:55.240Z,-3.50
2019-01-24T08:43:56.962Z,-3.40
2019-01-24T08:45:58.703Z,-3.50
2019-01-24T08:48:00.441Z,-3.60
2019-01-24T08:50:03.423Z,-3.40
2019-01-24T08:52:05.263Z,-3.50
2019-01-24T08:54:06.986Z,-3.60
2019-01-24T08:56:08.715Z,-3.60
2019-01-24T08:58:10.854Z,-3.50
2019-01-24T09:00:14.990Z,-3.60
2019-01-24T09:02:16.718Z,-3.60
2019-01-24T09:04:18.459Z,-3.60
2019-01-24T09:06:22.673Z,-3.70
2019-01-24T09:08:23.922Z,-3.60
2019-01-24T09:10:28.618Z,-3.50
2019-01-24T09:12:30.668Z,-3.40
2019-01-24T09:14:32.561Z,-3.50
2019-01-24T09:16:34.295Z,-3.50
2019-01-24T09:18:36.017Z,-3.50
2019-01-24T09:20:37.985Z,-3.40
2019-01-24T09:22:39.987Z,-3.50
2019-01-24T09:24:41.742Z,-3.40
2019-01-24T09:26:43.607Z,-3.40
2019-01-24T09:28:45.355Z,-3.30
2019-01-24T09:30:47.088Z,-3.30
2019-01-24T09:32:48.926Z,-3.40
2019-01-24T09:34:50.740Z,-3.40
2019-01-24T09:36:52.660Z,-3.40
2019-01-24T09:38:54.382Z,-3.40
2019-01-24T09:40:56.103Z,-3.20
2019-01-24T09:42:58.136Z,-3.20
2019-01-24T09:44:59.846Z,-3.20
2019-01-24T09:47:01.566Z,-3.20
2019-01-24T09:49:03.533Z,-3.30
2019-01-24T09:51:05.330Z,-3.50
2019-01-24T09:53:07.162Z,-3.50
2019-01-24T09:55:09.246Z,-3.50
2019-01-24T09:57:10.960Z,-3.50
2019-01-24T09:59:12.792Z,-3.40
2019-01-24T10:01:14.725Z,-3.30
2019-01-24T10:03:16.434Z,-3.30
2019-01-24T10:05:18.686Z,-3.30
2019-01-24T10:07:20.433Z,-3.20
2019-01-24T10:09:22.154Z,-3.40
2019-01-24T10:11:23.874Z,-3.40
2019-01-24T10:13:25.750Z,-3.40
2019-01-24T10:15:27.696Z,-3.40
2019-01-24T10:17:29.703Z,-3.20
2019-01-24T10:19:31.418Z,-3.20
2019-01-24T10:21:33.258Z,-3.20
2019-01-24T10:23:34.974Z,-3.20
2019-01-24T10:25:37.948Z,-3.30
2019-01-24T10:27:39.664Z,-3.30
2019-01-24T10:29:41.384Z,-3.30
2019-01-24T10:31:43.154Z,-3.30
2019-01-24T10:33:45.075Z,-3.40
2019-01-24T10:35:46.894Z,-3.50
2019-01-24T10:37:49.041Z,-3.30
2019-01-24T10:39:50.960Z,-3.30
2019-01-24T10:41:52.827Z,-3.20
2019-01-24T10:43:54.657Z,-3.20
2019-01-24T10:45:56.477Z,-3.30
2019-01-24T10:47:58.398Z,-3.20
2019-01-24T10:50:00.418Z,-3.20
2019-01-24T10:52:02.303Z,-3.30
2019-01-24T10:54:04.026Z,-3.20
2019-01-24T10:56:05.886Z,-3.30
2019-01-24T10:58:07.604Z,-3.20
2019-01-24T11:00:13.034Z,-3.20
2019-01-24T11:02:14.952Z,-2.90
2019-01-24T11:04:16.671Z,-2.80
2019-01-24T11:06:18.495Z,-2.80
2019-01-24T11:08:20.342Z,-3.10
2019-01-24T11:10:22.279Z,-3.10
2019-01-24T11:12:24.085Z,-2.90
2019-01-24T11:14:25.931Z,-3.00
2019-01-24T11:16:27.754Z,-3.10
2019-01-24T11:18:29.461Z,-3.20
2019-01-24T11:20:31.212Z,-3.30
2019-01-24T11:22:33.195Z,-3.20
2019-01-24T11:24:34.921Z,-3.20
2019-01-24T11:26:37.035Z,-3.00
2019-01-24T11:28:38.894Z,-3.00
2019-01-24T11:30:40.868Z,-3.00
2019-01-24T11:32:42.892Z,-3.00
2019-01-24T11:34:44.724Z,-3.10
2019-01-24T11:36:46.590Z,-3.10
2019-01-24T11:38:48.669Z,-3.20
2019-01-24T11:40:50.482Z,-3.00
2019-01-24T11:42:52.693Z,-3.10
2019-01-24T11:44:54.413Z,-3.10
2019-01-24T11:46:56.439Z,-2.90
2019-01-24T11:48:58.178Z,-2.90
2019-01-24T11:50:59.919Z,-2.90
2019-01-24T11:53:01.683Z,-2.90
2019-01-24T11:55:04.222Z,-2.80
2019-01-24T11:57:05.963Z,-2.90
2019-01-24T11:59:07.735Z,-2.80
2019-01-24T12:01:09.483Z,-2.80
2019-01-24T12:03:11.899Z,-2.90
2019-01-24T12:05:14.251Z,-3.00
2019-01-24T12:07:15.970Z,-2.80
2019-01-24T12:09:18.054Z,-2.70
2019-01-24T12:11:19.767Z,-2.80
2019-01-24T12:13:21.592Z,-2.80
2019-01-24T12:15:24.460Z,-2.80
2019-01-24T12:17:26.178Z,-3.00
2019-01-24T12:19:27.891Z,-3.00
2019-01-24T12:21:29.724Z,-2.90
2019-01-24T12:23:32.371Z,-3.00
2019-01-24T12:25:34.200Z,-3.00
2019-01-24T12:27:36.043Z,-3.00
2019-01-24T12:29:37.787Z,-2.80
2019-01-24T12:31:39.759Z,-2.90
2019-01-24T12:33:41.544Z,-2.90
2019-01-24T12:35:43.444Z,-2.80
2019-01-24T12:37:45.282Z,-2.70
2019-01-24T12:39:47.003Z,-2.60
2019-01-24T12:41:48.746Z,-2.50
2019-01-24T12:43:50.470Z,-2.70
2019-01-24T12:45:52.435Z,-2.70
2019-01-24T12:47:54.389Z,-2.60
2019-01-24T12:49:56.199Z,-2.70
2019-01-24T12:51:57.911Z,-2.60
2019-01-24T12:54:00.426Z,-2.60
2019-01-24T12:56:02.614Z,-2.50
2019-01-24T12:58:04.774Z,-2.40
2019-01-24T13:00:10.738Z,-2.30
2019-01-24T13:02:12.442Z,-2.30
2019-01-24T13:04:14.183Z,-2.40
2019-01-24T13:06:15.919Z,-2.40
2019-01-24T13:08:17.778Z,-2.50
2019-01-24T13:10:21.399Z,-2.60
2019-01-24T13:12:23.121Z,-2.60
2019-01-24T13:14:24.838Z,-2.70
2019-01-24T13:16:26.546Z,-2.60
2019-01-24T13:18:28.270Z,-2.60
2019-01-24T13:20:30.178Z,-2.40
2019-01-24T13:22:32.008Z,-2.30
2019-01-24T13:24:33.991Z,-2.30
2019-01-24T13:26:35.832Z,-2.40
2019-01-24T13:28:37.539Z,-2.30
2019-01-24T13:30:39.360Z,-2.30
2019-01-24T13:32:41.225Z,-2.10
2019-01-24T13:34:42.965Z,-2.20
2019-01-24T13:36:44.675Z,-2.30
2019-01-24T13:38:46.602Z,-2.20
2019-01-24T13:40:48.532Z,-2.20
2019-01-24T13:42:50.326Z,-2.10
2019-01-24T13:44:52.055Z,-2.20
2019-01-24T13:46:53.902Z,-2.20
2019-01-24T13:48:55.741Z,-2.10
2019-01-24T13:50:57.482Z,-2.10
2019-01-24T13:52:59.443Z,-2.10
2019-01-24T13:55:01.457Z,-2.20
2019-01-24T13:57:03.489Z,-2.10
2019-01-24T13:59:05.323Z,-2.20
2019-01-24T14:01:07.249Z,-2.30
2019-01-24T14:03:20.564Z,-2.30
2019-01-24T14:05:22.290Z,-2.00
2019-01-24T14:07:23.987Z,-2.00
2019-01-24T14:09:25.726Z,-2.10
2019-01-24T14:11:27.574Z,-2.10
2019-01-24T14:13:29.291Z,-2.20
2019-01-24T14:15:31.016Z,-2.30
2019-01-24T14:17:32.755Z,-2.20
2019-01-24T14:19:34.501Z,-2.30
2019-01-24T14:21:36.325Z,-2.30
2019-01-24T14:23:38.214Z,-2.30
2019-01-24T14:25:40.118Z,-2.40
2019-01-24T14:27:42.094Z,-2.40
2019-01-24T14:29:43.974Z,-2.50
2019-01-24T14:31:45.846Z,-2.40
2019-01-24T14:33:47.569Z,-2.30
2019-01-24T14:35:49.478Z,-2.20
2019-01-24T14:37:51.295Z,-2.10
2019-01-24T14:39:53.158Z,-2.30
2019-01-24T14:41:54.895Z,-2.40
2019-01-24T14:43:56.626Z,-2.40
2019-01-24T14:45:58.330Z,-2.50
2019-01-24T14:48:00.282Z,-2.40
2019-01-24T14:50:03.135Z,-2.30
2019-01-24T14:52:05.198Z,-2.30
2019-01-24T14:54:07.167Z,-2.50
2019-01-24T14:56:09.142Z,-2.50
2019-01-24T14:58:11.206Z,-2.60
2019-01-24T15:00:30.663Z,-2.70
2019-01-24T15:02:32.386Z,-2.70
2019-01-24T15:04:34.230Z,-2.70
2019-01-24T15:06:36.059Z,-2.60
2019-01-24T15:08:37.880Z,-2.60
2019-01-24T15:10:39.800Z,-2.60
2019-01-24T15:12:41.638Z,-2.70
2019-01-24T15:14:43.382Z,-2.70
2019-01-24T15:16:45.103Z,-2.80
2019-01-24T15:18:47.131Z,-2.70
2019-01-24T15:20:48.832Z,-2.70
2019-01-24T15:22:50.650Z,-2.50
2019-01-24T15:24:52.401Z,-2.60
2019-01-24T15:26:54.114Z,-2.60
2019-01-24T15:28:55.934Z,-2.50
2019-01-24T15:30:57.908Z,-2.50
2019-01-24T15:32:59.731Z,-2.60
2019-01-24T15:35:01.562Z,-2.70
2019-01-24T15:37:03.510Z,-2.60
2019-01-24T15:39:06.814Z,-2.60
2019-01-24T15:41:08.652Z,-2.50
2019-01-24T15:43:10.660Z,-2.50
2019-01-24T15:45:14.450Z,-2.50
2019-01-24T15:47:16.263Z,-2.60
2019-01-24T15:49:18.082Z,-2.70
2019-01-24T15:51:19.858Z,-2.80
2019-01-24T15:53:21.754Z,-2.80
2019-01-24T15:55:23.598Z,-2.70
2019-01-24T15:57:25.332Z,-2.60
2019-01-24T15:59:27.050Z,-2.60
2019-01-24T16:01:28.790Z,-2.60
2019-01-24T16:03:30.619Z,-2.50
2019-01-24T16:05:32.628Z,-2.40
2019-01-24T16:07:34.362Z,-2.30
2019-01-24T16:09:36.180Z,-2.40
2019-01-24T16:11:37.962Z,-2.40
2019-01-24T16:13:39.647Z,-2.60
2019-01-24T16:15:41.412Z,-2.50
2019-01-24T16:17:43.249Z,-2.40
2019-01-24T16:19:45.074Z,-2.30
2019-01-24T16:21:46.815Z,-2.40
2019-01-24T16:23:48.528Z,-2.50
2019-01-24T16:25:50.248Z,-2.60
2019-01-24T16:27:51.987Z,-2.60
2019-01-24T16:29:53.710Z,-2.60
2019-01-24T16:31:55.539Z,-2.40
2019-01-24T16:33:57.487Z,-2.50
2019-01-24T16:35:59.370Z,-2.50
2019-01-24T16:38:01.546Z,-2.40
2019-01-24T16:40:04.274Z,-2.50
2019-01-24T16:42:06.038Z,-2.40
2019-01-24T16:44:07.854Z,-2.40
2019-01-24T16:46:09.659Z,-2.40
2019-01-24T16:48:11.610Z,-2.20
2019-01-24T16:50:14.430Z,-2.20
2019-01-24T16:52:16.141Z,-2.30
2019-01-24T16:54:17.861Z,-2.40
2019-01-24T16:56:19.797Z,-2.50
2019-01-24T16:58:21.615Z,-2.50
2019-01-24T17:00:26.180Z,-2.40
2019-01-24T17:02:27.912Z,-2.50
2019-01-24T17:04:29.753Z,-2.50
2019-01-24T17:06:31.790Z,-2.50
2019-01-24T17:08:33.551Z,-2.60
2019-01-24T17:10:35.435Z,-2.80
2019-01-24T17:12:37.213Z,-2.70
2019-01-24T17:14:38.922Z,-2.60
2019-01-24T17:16:41.140Z,-2.50
2019-01-24T17:18:42.869Z,-2.50
2019-01-24T17:20:44.707Z,-2.60
2019-01-24T17:22:46.732Z,-2.50
2019-01-24T17:24:48.454Z,-2.60
2019-01-24T17:26:50.181Z,-2.50
2019-01-24T17:28:54.968Z,-2.50
2019-01-24T17:30:57.106Z,-2.50
2019-01-24T17:32:59.219Z,-2.50
2019-01-24T17:35:00.980Z,-2.50
2019-01-24T17:37:02.934Z,-2.60
2019-01-24T17:39:08.254Z,-2.60
2019-01-24T17:41:10.085Z,-2.60
2019-01-24T17:43:11.831Z,-2.60
2019-01-24T17:45:14.514Z,-2.50
2019-01-24T17:47:16.236Z,-2.60
2019-01-24T17:49:18.193Z,-2.60
2019-01-24T17:51:20.026Z,-2.60
2019-01-24T17:53:21.835Z,-2.40
2019-01-24T17:55:29.158Z,-2.40
2019-01-24T17:57:30.898Z,-2.50
2019-01-24T17:59:32.610Z,-2.60
2019-01-24T18:01:34.439Z,-2.60
2019-01-24T18:03:36.254Z,-2.60
2019-01-24T18:05:38.073Z,-2.50
2019-01-24T18:07:40.007Z,-2.40
2019-01-24T18:09:41.783Z,-2.40
2019-01-24T18:11:44.595Z,-2.50
2019-01-24T18:13:46.930Z,-2.50
2019-01-24T18:15:48.752Z,-2.50
2019-01-24T18:17:50.700Z,-2.60
2019-01-24T18:19:52.514Z,-2.50
2019-01-24T18:21:54.231Z,-2.40
2019-01-24T18:23:55.984Z,-2.40
2019-01-24T18:25:58.926Z,-2.40
2019-01-24T18:28:02.252Z,-2.50
2019-01-24T18:30:27.831Z,-2.50
2019-01-24T18:32:28.933Z,-2.60
2019-01-24T18:34:30.822Z,-2.50
2019-01-24T18:36:32.684Z,-2.40
2019-01-24T18:38:38.449Z,-2.50
2019-01-24T18:40:38.389Z,-2.50
2019-01-24T18:42:40.551Z,-2.40
2019-01-24T18:44:42.326Z,-2.30
2019-01-24T18:46:51.083Z,-2.40
2019-01-24T18:48:53.245Z,-2.50
2019-01-24T18:50:55.175Z,-2.40
2019-01-24T18:52:57.156Z,-2.30
2019-01-24T18:54:59.146Z,-2.30
2019-01-24T18:57:01.283Z,-2.40
2019-01-24T18:59:03.644Z,-2.40
2019-01-24T19:01:05.462Z,-2.40
2019-01-24T19:03:08.388Z,-2.40
2019-01-24T19:05:11.053Z,-2.40
2019-01-24T19:07:12.755Z,-2.30
2019-01-24T19:09:15.780Z,-2.20
2019-01-24T19:11:17.526Z,-2.10
2019-01-24T19:13:19.306Z,-2.20
2019-01-24T19:15:21.333Z,-2.30
2019-01-24T19:17:23.168Z,-2.50
2019-01-24T19:19:36.710Z,-2.50
2019-01-24T19:21:38.608Z,-2.40
2019-01-24T19:23:40.349Z,-2.30
2019-01-24T19:25:42.751Z,-2.30
2019-01-24T19:27:44.861Z,-2.20
2019-01-24T19:29:46.620Z,-2.20
2019-01-24T19:31:48.982Z,-2.30
2019-01-24T19:33:50.761Z,-2.40
2019-01-24T19:36:00.080Z,-2.40
2019-01-24T19:37:57.380Z,-2.40
2019-01-24T19:39:59.147Z,-2.50
2019-01-24T19:42:00.931Z,-2.50
2019-01-24T19:44:03.458Z,-2.50
2019-01-24T19:46:05.586Z,-2.40
2019-01-24T19:48:07.571Z,-2.40
2019-01-24T19:50:12.181Z,-2.50
2019-01-24T19:52:14.082Z,-2.40
2019-01-24T19:54:15.807Z,-2.40
2019-01-24T19:56:17.829Z,-2.40
2019-01-24T19:58:31.920Z,-2.30
2019-01-24T20:00:33.871Z,-2.30
2019-01-24T20:02:35.744Z,-2.20
2019-01-24T20:04:37.736Z,-2.40
2019-01-24T20:06:39.630Z,-2.50
2019-01-24T20:08:41.577Z,-2.50
2019-01-24T20:10:43.469Z,-2.40
2019-01-24T20:12:45.467Z,-2.30
2019-01-24T20:14:47.355Z,-2.20
2019-01-24T20:16:49.347Z,-2.30
2019-01-24T20:18:52.186Z,-2.30
2019-01-24T20:20:54.038Z,-2.30
2019-01-24T20:22:56.391Z,-2.50
2019-01-24T20:24:58.283Z,-2.40
2019-01-24T20:27:00.105Z,-2.40
2019-01-24T20:29:02.038Z,-2.40
2019-01-24T20:31:03.784Z,-2.40
2019-01-24T20:33:05.642Z,-2.40
2019-01-24T20:35:11.448Z,-2.40
2019-01-24T20:37:13.471Z,-2.40
2019-01-24T20:39:15.208Z,-2.40
2019-01-24T20:41:17.183Z,-2.40
2019-01-24T20:43:19.386Z,-2.40
2019-01-24T20:45:21.187Z,-2.40
2019-01-24T20:47:24.470Z,-2.40
2019-01-24T20:49:26.733Z,-2.40
2019-01-24T20:51:28.739Z,-2.40
2019-01-24T20:53:30.539Z,-2.60
2019-01-24T20:55:32.542Z,-2.60
2019-01-24T20:57:34.890Z,-2.50
2019-01-24T20:59:36.943Z,-2.40
2019-01-24T21:01:38.874Z,-2.40
2019-01-24T21:03:41.867Z,-2.40
2019-01-24T21:05:43.725Z,-2.30
2019-01-24T21:07:46.102Z,-2.30
2019-01-24T21:09:48.038Z,-2.30
2019-01-24T21:11:49.799Z,-2.30
2019-01-24T21:13:56.204Z,-2.20
2019-01-24T21:15:58.039Z,-2.20
2019-01-24T21:17:59.755Z,-2.40
2019-01-24T21:20:07.472Z,-2.30
2019-01-24T21:22:09.628Z,-2.30
2019-01-24T21:24:11.544Z,-2.30
2019-01-24T21:26:13.391Z,-2.20
2019-01-24T21:28:15.161Z,-2.20
2019-01-24T21:30:19.536Z,-2.20
2019-01-24T21:32:21.290Z,-2.30
2019-01-24T21:34:23.061Z,-2.40
2019-01-24T21:36:24.794Z,-2.40
2019-01-24T21:38:26.975Z,-2.50
2019-01-24T21:40:32.055Z,-2.40
2019-01-24T21:42:33.890Z,-2.40
2019-01-24T21:44:35.619Z,-2.60
2019-01-24T21:46:37.346Z,-2.60
2019-01-24T21:48:39.055Z,-2.50
2019-01-24T21:50:41.566Z,-2.50
2019-01-24T21:52:43.415Z,-2.50
2019-01-24T21:54:45.256Z,-2.40
2019-01-24T21:56:47.259Z,-2.40
2019-01-24T21:58:48.998Z,-2.40
2019-01-24T22:00:51.011Z,-2.40
2019-01-24T22:02:52.978Z,-2.50
2019-01-24T22:04:54.960Z,-2.40
2019-01-24T22:06:57.014Z,-2.50
2019-01-24T22:08:59.098Z,-2.50
2019-01-24T22:11:00.967Z,-2.60
2019-01-24T22:13:03.140Z,-2.50
2019-01-24T22:15:08.239Z,-2.40
2019-01-24T22:17:09.975Z,-2.40
2019-01-24T22:19:12.187Z,-2.50
2019-01-24T22:21:14.180Z,-2.40
2019-01-24T22:23:15.898Z,-2.50
2019-01-24T22:25:20.481Z,-2.40
2019-01-24T22:27:22.363Z,-2.50
2019-01-24T22:29:24.117Z,-2.60
2019-01-24T22:31:26.157Z,-2.50
2019-01-24T22:33:28.312Z,-2.40
2019-01-24T22:35:30.245Z,-2.40
2019-01-24T22:37:32.101Z,-2.30
2019-01-24T22:39:36.680Z,-2.40
2019-01-24T22:41:37.673Z,-2.40
2019-01-24T22:43:39.530Z,-2.30
2019-01-24T22:45:41.652Z,-2.30
2019-01-24T22:47:43.451Z,-2.30
2019-01-24T22:49:46.869Z,-2.20
2019-01-24T22:51:48.594Z,-2.20
2019-01-24T22:53:50.406Z,-2.20
2019-01-24T22:55:53.250Z,-2.30
2019-01-24T22:57:55.150Z,-2.20
2019-01-24T23:00:17.633Z,-2.20
2019-01-24T23:02:24.555Z,-2.10
2019-01-24T23:04:26.462Z,-2.20
2019-01-24T23:06:28.502Z,-2.10
2019-01-24T23:08:30.240Z,-2.10
2019-01-24T23:10:32.060Z,-2.10
2019-01-24T23:12:33.813Z,-2.10
2019-01-24T23:14:35.527Z,-2.10
2019-01-24T23:16:37.363Z,-2.10
2019-01-24T23:18:39.186Z,-2.10
2019-01-24T23:20:41.229Z,-2.10
2019-01-24T23:22:43.781Z,-2.10
2019-01-24T23:24:45.620Z,-2.10
2019-01-24T23:26:47.358Z,-2.10
2019-01-24T23:28:49.085Z,-2.10
2019-01-24T23:30:50.907Z,-2.10
2019-01-24T23:32:52.790Z,-2.10
2019-01-24T23:34:54.618Z,-2.10
2019-01-24T23:36:56.350Z,-2.10
2019-01-24T23:38:58.062Z,-2.00
2019-01-24T23:41:00.123Z,-2.00
2019-01-24T23:43:02.440Z,-2.10
2019-01-24T23:45:04.819Z,-2.10
2019-01-24T23:47:07.028Z,-2.10
2019-01-24T23:49:08.742Z,-2.10
2019-01-24T23:51:10.683Z,-2.10
2019-01-24T23:53:12.674Z,-2.10
2019-01-24T23:55:14.863Z,-2.10
2019-01-24T23:57:23.739Z,-2.10
2019-01-24T23:59:20.363Z,-2.10
